createdAt,value
2022-09-12T00:00:26.405Z,3.47
2022-09-12T00:03:17.002Z,3.73
2022-09-12T00:05:48.063Z,3.03
2022-09-12T00:08:18.241Z,2.88
2022-09-12T00:10:49.653Z,3.13
2022-09-12T00:13:19.883Z,3.53
2022-09-12T00:15:49.793Z,2.83
2022-09-12T00:18:20.291Z,3.33
2022-09-12T00:20:50.891Z,3.17
2022-09-12T00:23:21.014Z,3.10
2022-09-12T00:25:52.591Z,3.75
2022-09-12T00:28:22.593Z,2.90
2022-09-12T00:30:52.794Z,3.70
2022-09-12T00:33:22.848Z,2.75
2022-09-12T00:35:54.313Z,3.25
2022-09-12T00:38:24.241Z,2.92
2022-09-12T00:40:55.891Z,2.88
2022-09-12T00:43:40.755Z,2.85
2022-09-12T00:46:20.981Z,3.17
2022-09-12T00:48:56.083Z,2.70
2022-09-12T00:51:26.481Z,3.15
2022-09-12T00:53:59.706Z,2.88
2022-09-12T00:56:31.633Z,3.13
2022-09-12T00:59:07.041Z,3.25
2022-09-12T01:01:38.083Z,3.20
2022-09-12T01:04:08.554Z,2.92
2022-09-12T01:06:41.647Z,2.40
2022-09-12T01:09:13.865Z,3.35
2022-09-12T01:11:47.421Z,2.78
2022-09-12T01:14:19.959Z,2.78
2022-09-12T01:16:52.304Z,3.20
2022-09-12T01:19:46.523Z,2.88
2022-09-12T01:22:32.859Z,3.42
2022-09-12T01:25:13.065Z,2.25
2022-09-12T01:28:24.427Z,3.15
2022-09-12T01:31:01.753Z,2.50
2022-09-12T01:33:40.634Z,3.40
2022-09-12T01:36:26.959Z,2.60
2022-09-12T01:39:02.200Z,2.55
2022-09-12T01:41:41.397Z,3.17
2022-09-12T01:44:20.407Z,2.75
2022-09-12T01:46:59.641Z,2.58
2022-09-12T01:49:34.949Z,2.50
2022-09-12T01:52:12.957Z,2.90
2022-09-12T01:54:48.579Z,2.30
2022-09-12T01:57:25.971Z,2.67
2022-09-12T02:00:01.617Z,2.60
2022-09-12T02:02:37.177Z,2.47
2022-09-12T02:05:12.127Z,2.72
2022-09-12T02:07:47.249Z,2.65
2022-09-12T02:10:20.947Z,3.08
2022-09-12T02:12:55.029Z,2.50
2022-09-12T02:15:30.988Z,2.13
2022-09-12T02:18:04.968Z,2.90
2022-09-12T02:20:54.366Z,2.60
2022-09-12T02:23:28.847Z,2.97
2022-09-12T02:26:05.267Z,2.88
2022-09-12T02:28:39.789Z,2.60
2022-09-12T02:31:16.158Z,2.53
2022-09-12T02:33:55.233Z,3.53
2022-09-12T02:36:36.240Z,2.65
2022-09-12T02:39:06.709Z,2.75
2022-09-12T02:41:37.159Z,3.40
2022-09-12T02:44:07.778Z,2.25
2022-09-12T02:46:43.700Z,2.97
2022-09-12T02:49:15.630Z,2.88
2022-09-12T02:51:46.638Z,2.70
2022-09-12T02:54:19.237Z,2.17
2022-09-12T02:56:49.608Z,3.90
2022-09-12T02:59:23.589Z,2.55
2022-09-12T03:02:09.354Z,2.38
2022-09-12T03:05:07.228Z,3.00
2022-09-12T03:07:57.938Z,2.53
2022-09-12T03:10:36.567Z,2.20
2022-09-12T03:13:19.280Z,2.33
2022-09-12T03:16:01.898Z,3.22
2022-09-12T03:18:53.266Z,2.60
2022-09-12T03:21:33.811Z,2.53
2022-09-12T03:24:15.653Z,2.75
2022-09-12T03:26:49.976Z,2.83
2022-09-12T03:29:21.016Z,2.58
2022-09-12T03:31:53.573Z,2.58
2022-09-12T03:34:25.473Z,2.72
2022-09-12T03:36:57.604Z,3.28
2022-09-12T03:39:28.296Z,2.92
2022-09-12T03:41:58.824Z,2.80
2022-09-12T03:44:29.467Z,3.35
2022-09-12T03:46:59.585Z,2.58
2022-09-12T03:49:29.515Z,3.25
2022-09-12T03:52:01.133Z,2.55
2022-09-12T03:54:31.036Z,2.60
2022-09-12T03:57:01.255Z,2.97
2022-09-12T03:59:31.333Z,2.88
2022-09-12T04:02:01.324Z,2.72
2022-09-12T04:04:31.551Z,3.10
2022-09-12T04:07:03.152Z,3.05
2022-09-12T04:09:33.316Z,3.03
2022-09-12T04:12:03.773Z,3.03
2022-09-12T04:14:34.146Z,3.13
2022-09-12T04:17:04.505Z,3.10
2022-09-12T04:19:34.395Z,2.85
2022-09-12T04:22:06.206Z,3.00
2022-09-12T04:27:07.804Z,2.55
2022-09-12T04:29:38.076Z,2.22
2022-09-12T04:32:08.503Z,3.15
2022-09-12T04:34:39.524Z,2.55
2022-09-12T04:37:12.024Z,2.80
2022-09-12T04:39:42.094Z,3.50
2022-09-12T04:42:12.854Z,2.80
2022-09-12T04:44:42.844Z,3.22
2022-09-12T04:47:13.157Z,3.05
2022-09-12T04:49:43.435Z,3.72
2022-09-12T04:52:14.834Z,3.33
2022-09-12T04:54:45.095Z,3.42
2022-09-12T04:57:15.034Z,3.63
2022-09-12T04:59:45.124Z,3.13
2022-09-12T05:02:15.312Z,3.08
2022-09-12T05:04:47.215Z,3.33
2022-09-12T05:07:19.531Z,3.85
2022-09-12T05:09:49.976Z,3.67
2022-09-12T05:12:20.156Z,3.07
2022-09-12T05:14:50.171Z,3.00
2022-09-12T05:17:20.316Z,3.30
2022-09-12T05:19:51.186Z,2.42
2022-09-12T05:22:23.154Z,2.83
2022-09-12T05:24:53.542Z,3.40
2022-09-12T05:27:23.603Z,3.17
2022-09-12T05:29:53.995Z,2.65
2022-09-12T05:32:24.193Z,3.37
2022-09-12T05:34:54.203Z,2.60
2022-09-12T05:37:25.584Z,2.85
2022-09-12T05:39:56.029Z,2.67
2022-09-12T05:42:26.133Z,3.15
2022-09-12T05:44:56.043Z,2.33
2022-09-12T05:47:26.275Z,3.38
2022-09-12T05:49:56.273Z,2.22
2022-09-12T05:52:27.585Z,2.75
2022-09-12T05:54:57.936Z,4.20
2022-09-12T05:57:27.986Z,4.18
2022-09-12T05:59:59.437Z,3.15
2022-09-12T06:02:29.648Z,2.90
2022-09-12T06:04:59.878Z,2.95
2022-09-12T06:07:32.335Z,3.35
2022-09-12T06:10:02.575Z,2.67
2022-09-12T06:12:32.596Z,1.90
2022-09-12T06:15:02.878Z,2.28
2022-09-12T06:17:32.816Z,2.20
2022-09-12T06:20:04.354Z,1.85
2022-09-12T06:22:36.053Z,2.28
2022-09-12T06:25:06.454Z,1.98
2022-09-12T06:27:36.563Z,2.25
2022-09-12T06:30:07.434Z,2.05
2022-09-12T06:35:08.153Z,2.00
2022-09-12T06:37:40.996Z,2.28
2022-09-12T06:40:12.676Z,2.30
2022-09-12T06:42:42.903Z,1.55
2022-09-12T06:45:13.254Z,2.03
2022-09-12T06:47:43.306Z,2.22
2022-09-12T06:50:13.675Z,2.40
2022-09-12T06:52:45.146Z,1.80
2022-09-12T06:55:19.844Z,2.15
2022-09-12T06:57:50.913Z,2.28
2022-09-12T07:00:22.416Z,2.63
2022-09-12T07:02:57.045Z,2.08
2022-09-12T07:05:28.423Z,1.70
2022-09-12T07:07:59.864Z,2.22
2022-09-12T07:10:31.341Z,1.90
2022-09-12T07:13:01.305Z,2.28
2022-09-12T07:15:31.745Z,2.22
2022-09-12T07:18:01.593Z,1.67
2022-09-12T07:20:33.455Z,1.95
2022-09-12T07:23:05.453Z,2.17
2022-09-12T07:25:36.333Z,2.03
2022-09-12T07:28:06.556Z,1.98
2022-09-12T07:30:40.322Z,1.75
2022-09-12T07:33:10.570Z,1.90
2022-09-12T07:35:41.013Z,1.40
2022-09-12T07:38:12.471Z,2.08
2022-09-12T07:40:42.703Z,1.90
2022-09-12T07:43:12.793Z,1.63
2022-09-12T07:45:43.667Z,1.98
2022-09-12T07:48:14.223Z,2.10
2022-09-12T07:50:45.253Z,2.08
2022-09-12T07:53:16.715Z,1.73
2022-09-12T07:55:54.723Z,1.90
2022-09-12T07:58:25.527Z,1.60
2022-09-12T08:00:55.811Z,1.27
2022-09-12T08:03:25.943Z,1.75
2022-09-12T08:05:56.116Z,1.73
2022-09-12T08:08:27.714Z,1.63
2022-09-12T08:11:00.173Z,1.80
2022-09-12T08:13:30.761Z,1.70
2022-09-12T08:16:02.471Z,1.40
2022-09-12T08:18:34.235Z,1.50
2022-09-12T08:21:06.388Z,1.30
2022-09-12T08:23:37.965Z,1.65
2022-09-12T08:26:08.817Z,1.90
2022-09-12T08:28:41.056Z,1.60
2022-09-12T08:31:15.151Z,1.67
2022-09-12T08:33:46.005Z,1.55
2022-09-12T08:36:18.323Z,1.48
2022-09-12T08:38:51.636Z,1.73
2022-09-12T08:41:30.656Z,1.85
2022-09-12T08:44:24.013Z,1.55
2022-09-12T08:47:13.002Z,1.08
2022-09-12T08:49:52.675Z,1.30
2022-09-12T08:52:29.174Z,1.23
2022-09-12T08:55:01.854Z,1.60
2022-09-12T08:57:32.224Z,1.38
2022-09-12T09:00:06.565Z,1.55
2022-09-12T09:03:12.658Z,1.63
2022-09-12T09:05:52.363Z,1.50
2022-09-12T09:08:38.755Z,1.45
2022-09-12T09:11:31.163Z,1.45
2022-09-12T09:14:31.093Z,1.48
2022-09-12T09:17:03.555Z,1.27
2022-09-12T09:19:39.074Z,1.80
2022-09-12T09:22:14.759Z,1.50
2022-09-12T09:24:50.223Z,1.63
2022-09-12T09:27:47.158Z,1.60
2022-09-12T09:30:19.835Z,1.90
2022-09-12T09:32:53.945Z,1.95
2022-09-12T09:35:36.526Z,1.52
2022-09-12T09:38:20.144Z,1.58
2022-09-12T09:41:00.153Z,1.50
2022-09-12T09:43:32.729Z,1.83
2022-09-12T09:46:03.256Z,3.00
2022-09-12T09:48:35.330Z,2.20
2022-09-12T09:51:09.602Z,1.38
2022-09-12T09:53:46.963Z,2.33
2022-09-12T09:56:28.529Z,1.77
2022-09-12T10:04:22.074Z,3.10
2022-09-12T10:06:54.865Z,1.55
2022-09-12T10:09:27.473Z,1.63
2022-09-12T10:11:58.945Z,1.65
2022-09-12T10:17:34.693Z,1.23
2022-09-12T10:20:22.475Z,1.67
2022-09-12T10:22:52.987Z,1.45
2022-09-12T10:25:26.505Z,1.63
2022-09-12T10:28:00.773Z,1.60
2022-09-12T10:30:32.273Z,1.50
2022-09-12T10:33:13.895Z,1.30
2022-09-12T10:35:50.467Z,1.50
2022-09-12T10:38:25.705Z,1.40
2022-09-12T10:41:03.845Z,1.33
2022-09-12T10:43:38.753Z,1.40
2022-09-12T10:46:31.066Z,1.20
2022-09-12T10:49:23.303Z,1.60
2022-09-12T10:51:54.679Z,1.65
2022-09-12T10:54:27.668Z,1.35
2022-09-12T10:57:21.946Z,1.65
2022-09-12T11:00:18.213Z,1.80
2022-09-12T11:03:17.685Z,1.50
2022-09-12T11:05:56.296Z,1.52
2022-09-12T11:08:42.665Z,1.80
2022-09-12T11:11:24.644Z,1.10
2022-09-12T11:14:11.224Z,1.63
2022-09-12T11:16:50.804Z,1.65
2022-09-12T11:19:48.201Z,1.58
2022-09-12T11:22:38.097Z,1.35
2022-09-12T11:25:33.316Z,1.45
2022-09-12T11:28:23.215Z,1.27
2022-09-12T11:31:15.240Z,1.23
2022-09-12T11:33:47.934Z,1.80
2022-09-12T11:36:43.055Z,1.27
2022-09-12T11:39:16.893Z,1.40
2022-09-12T11:41:52.813Z,1.50
2022-09-12T11:44:28.923Z,2.75
2022-09-12T11:46:59.803Z,16.73
2022-09-12T11:49:38.126Z,3.92
2022-09-12T11:52:17.699Z,3.15
2022-09-12T11:54:53.888Z,2.70
2022-09-12T11:57:32.415Z,1.70
2022-09-12T12:00:07.354Z,1.80
2022-09-12T12:02:43.965Z,1.60
2022-09-12T12:05:22.055Z,1.38
2022-09-12T12:07:58.895Z,1.42
2022-09-12T12:10:37.179Z,1.75
2022-09-12T12:13:14.334Z,1.80
2022-09-12T12:15:49.760Z,1.40
2022-09-12T12:18:22.032Z,1.38
2022-09-12T12:20:53.333Z,1.52
2022-09-12T12:23:31.395Z,1.45
2022-09-12T12:26:04.133Z,1.70
2022-09-12T12:29:01.297Z,1.60
2022-09-12T12:31:31.580Z,1.70
2022-09-12T12:34:24.414Z,2.50
2022-09-12T12:36:54.634Z,1.70
2022-09-12T12:40:01.497Z,1.88
2022-09-12T12:43:23.003Z,1.52
2022-09-12T12:46:16.175Z,1.42
2022-09-12T12:48:55.465Z,1.95
2022-09-12T12:52:01.727Z,1.65
2022-09-12T12:54:57.987Z,1.33
2022-09-12T12:57:48.818Z,1.38
2022-09-12T13:00:32.524Z,1.52
2022-09-12T13:03:12.156Z,1.65
2022-09-12T13:05:45.634Z,1.23
2022-09-12T13:08:31.982Z,1.20
2022-09-12T13:11:07.676Z,1.30
2022-09-12T13:13:43.374Z,1.70
2022-09-12T13:16:14.038Z,1.38
2022-09-12T13:18:48.058Z,1.50
2022-09-12T13:21:20.255Z,1.40
2022-09-12T13:24:03.023Z,1.50
2022-09-12T13:26:41.845Z,1.30
2022-09-12T13:29:14.226Z,1.80
2022-09-12T13:31:47.533Z,1.25
2022-09-12T13:34:22.634Z,1.40
2022-09-12T13:37:26.485Z,1.10
2022-09-12T13:40:07.729Z,1.00
2022-09-12T13:42:42.986Z,1.17
2022-09-12T13:45:21.385Z,1.63
2022-09-12T13:47:58.470Z,1.70
2022-09-12T13:50:33.963Z,1.77
2022-09-12T13:53:07.385Z,1.60
2022-09-12T13:55:40.522Z,1.30
2022-09-12T13:58:21.144Z,1.70
2022-09-12T14:01:04.196Z,1.40
2022-09-12T14:03:58.966Z,1.55
2022-09-12T14:06:36.976Z,1.25
2022-09-12T14:09:16.477Z,1.50
2022-09-12T14:11:46.534Z,1.55
2022-09-12T14:14:28.286Z,1.10
2022-09-12T14:16:59.263Z,1.38
2022-09-12T14:19:30.274Z,1.63
2022-09-12T14:22:02.408Z,1.30
2022-09-12T14:24:33.585Z,1.40
2022-09-12T14:27:03.645Z,1.90
2022-09-12T14:29:35.114Z,1.42
2022-09-12T14:32:07.237Z,1.75
2022-09-12T14:34:39.097Z,2.40
2022-09-12T14:37:10.935Z,1.90
2022-09-12T14:39:44.445Z,2.75
2022-09-12T14:42:18.247Z,2.15
2022-09-12T14:44:58.791Z,1.75
2022-09-12T14:47:40.455Z,2.22
2022-09-12T14:50:18.653Z,1.30
2022-09-12T14:53:06.468Z,8.27
2022-09-12T14:55:44.901Z,2.35
2022-09-12T14:58:26.432Z,1.70
2022-09-12T15:01:04.255Z,2.05
2022-09-12T15:03:37.113Z,2.88
2022-09-12T15:06:22.263Z,1.48
2022-09-12T15:08:55.843Z,1.30
2022-09-12T15:11:26.085Z,1.13
2022-09-12T15:13:56.905Z,2.13
2022-09-12T15:16:27.263Z,1.50
2022-09-12T15:18:57.305Z,2.13
2022-09-12T15:21:27.451Z,1.50
2022-09-12T15:23:59.124Z,1.30
2022-09-12T15:29:02.175Z,1.20
2022-09-12T15:31:34.121Z,1.13
2022-09-12T15:34:05.073Z,1.08
2022-09-12T15:36:35.142Z,1.20
2022-09-12T15:39:07.437Z,1.03
2022-09-12T15:41:39.056Z,1.40
2022-09-12T15:44:12.713Z,1.63
2022-09-12T15:46:43.232Z,1.75
2022-09-12T15:49:13.606Z,1.30
2022-09-12T15:51:44.695Z,1.60
2022-09-12T15:56:47.893Z,1.27
2022-09-12T15:59:21.213Z,1.48
2022-09-12T16:01:51.218Z,1.60
2022-09-12T16:04:25.605Z,1.50
2022-09-12T16:06:58.381Z,1.90
2022-09-12T16:09:30.728Z,1.63
2022-09-12T16:12:01.686Z,1.67
2022-09-12T16:14:31.646Z,1.60
2022-09-12T16:17:01.986Z,1.42
2022-09-12T16:19:31.967Z,1.30
2022-09-12T16:22:02.205Z,1.77
2022-09-12T16:24:35.041Z,1.93
2022-09-12T16:27:05.429Z,1.80
2022-09-12T16:29:36.395Z,1.63
2022-09-12T16:32:06.525Z,1.77
2022-09-12T16:34:36.712Z,1.80
2022-09-12T16:37:07.087Z,2.22
2022-09-12T16:39:38.863Z,1.35
2022-09-12T16:42:09.365Z,1.88
2022-09-12T16:44:39.654Z,2.25
2022-09-12T16:47:09.667Z,2.03
2022-09-12T16:49:40.262Z,1.90
2022-09-12T16:52:11.694Z,1.97
2022-09-12T16:57:13.216Z,2.17
2022-09-12T16:59:43.753Z,2.67
2022-09-12T17:02:14.956Z,3.15
2022-09-12T17:04:45.284Z,2.72
2022-09-12T17:07:15.366Z,2.30
2022-09-12T17:09:48.048Z,3.38
2022-09-12T17:12:18.413Z,2.13
2022-09-12T17:14:48.292Z,2.55
2022-09-12T17:17:18.144Z,2.50
2022-09-12T17:19:48.432Z,6.85
2022-09-12T17:22:18.239Z,5.10
2022-09-12T17:24:49.693Z,5.75
2022-09-12T17:27:19.857Z,5.70
2022-09-12T17:29:49.774Z,5.13
2022-09-12T17:32:19.697Z,5.55
2022-09-12T17:34:50.997Z,6.05
2022-09-12T17:37:22.031Z,8.90
2022-09-12T17:39:53.772Z,9.45
2022-09-12T17:42:24.643Z,11.98
2022-09-12T17:44:55.965Z,11.40
2022-09-12T17:47:25.914Z,10.48
2022-09-12T17:50:14.550Z,9.82
2022-09-12T17:52:46.572Z,9.88
2022-09-12T17:55:18.225Z,8.50
2022-09-12T17:57:48.836Z,8.60
2022-09-12T18:00:39.993Z,8.00
2022-09-12T18:03:09.065Z,7.03
2022-09-12T18:05:46.325Z,7.63
2022-09-12T18:08:16.433Z,9.88
2022-09-12T18:10:48.675Z,9.40
2022-09-12T18:13:18.928Z,9.85
2022-09-12T18:15:49.834Z,8.18
2022-09-12T18:18:21.255Z,7.63
2022-09-12T18:20:55.001Z,7.13
2022-09-12T18:23:25.575Z,7.32
2022-09-12T18:26:05.271Z,9.10
2022-09-12T18:28:37.153Z,8.65
2022-09-12T18:31:14.654Z,5.22
2022-09-12T18:33:47.428Z,5.35
2022-09-12T18:38:51.948Z,6.10
2022-09-12T18:41:26.513Z,5.95
2022-09-12T18:43:59.605Z,6.07
2022-09-12T18:46:33.055Z,7.20
2022-09-12T18:49:03.761Z,6.68
2022-09-12T18:51:36.343Z,7.17
2022-09-12T18:54:09.080Z,6.82
2022-09-12T18:56:44.391Z,6.90
2022-09-12T18:59:15.607Z,7.00
2022-09-12T19:01:46.213Z,7.28
2022-09-12T19:04:16.907Z,7.72
2022-09-12T19:06:49.016Z,7.55
2022-09-12T19:09:20.896Z,7.25
2022-09-12T19:11:53.004Z,8.60
2022-09-12T19:14:25.236Z,8.75
2022-09-12T19:16:56.258Z,9.70
2022-09-12T19:19:26.898Z,9.27
2022-09-12T19:21:58.389Z,9.88
2022-09-12T19:24:29.397Z,8.73
2022-09-12T19:27:06.074Z,8.48
2022-09-12T19:29:36.613Z,9.15
2022-09-12T19:32:09.994Z,9.13
2022-09-12T19:34:44.354Z,10.25
2022-09-12T19:37:19.004Z,7.57
2022-09-12T19:39:50.372Z,9.18
2022-09-12T19:42:23.823Z,8.68
2022-09-12T19:44:56.228Z,8.25
2022-09-12T19:47:28.292Z,7.95
2022-09-12T19:50:01.783Z,8.20
2022-09-12T19:52:35.174Z,8.23
2022-09-12T19:55:05.355Z,9.07
2022-09-12T19:57:37.663Z,8.95
2022-09-12T20:00:09.004Z,9.48
2022-09-12T20:02:39.901Z,9.27
2022-09-12T20:05:10.463Z,11.07
2022-09-12T20:07:40.676Z,10.83
2022-09-12T20:10:11.508Z,9.52
2022-09-12T20:12:43.454Z,9.27
2022-09-12T20:15:16.265Z,9.20
2022-09-12T20:17:48.276Z,9.32
2022-09-12T20:20:19.074Z,8.38
2022-09-12T20:22:52.865Z,11.18
2022-09-12T20:25:23.803Z,9.23
2022-09-12T20:27:59.969Z,10.07
2022-09-12T20:30:30.285Z,9.02
2022-09-12T20:33:00.638Z,9.48
2022-09-12T20:35:30.898Z,9.00
2022-09-12T20:38:01.165Z,9.05
2022-09-12T20:40:31.365Z,9.43
2022-09-12T20:43:03.161Z,9.95
2022-09-12T20:45:33.725Z,10.43
2022-09-12T20:48:05.106Z,10.02
2022-09-12T20:50:35.630Z,10.23
2022-09-12T20:53:06.210Z,10.40
2022-09-12T20:55:36.992Z,10.15
2022-09-12T20:58:08.980Z,10.68
2022-09-12T21:00:40.874Z,10.35
2022-09-12T21:03:10.835Z,11.20
2022-09-12T21:05:41.374Z,9.93
2022-09-12T21:08:11.693Z,9.65
2022-09-12T21:10:43.176Z,9.57
2022-09-12T21:13:15.230Z,9.55
2022-09-12T21:15:45.590Z,9.20
2022-09-12T21:18:15.632Z,9.73
2022-09-12T21:20:52.685Z,10.13
2022-09-12T21:23:23.304Z,9.25
2022-09-12T21:25:54.143Z,9.63
2022-09-12T21:28:25.554Z,8.32
2022-09-12T21:30:56.225Z,9.30
2022-09-12T21:33:26.453Z,8.88
2022-09-12T21:35:58.191Z,9.15
2022-09-12T21:41:06.045Z,9.38
2022-09-12T21:43:37.955Z,10.00
2022-09-12T21:46:10.368Z,9.00
2022-09-12T21:48:40.524Z,10.38
2022-09-12T21:51:10.745Z,9.30
2022-09-12T21:53:40.784Z,7.93
2022-09-12T21:56:11.546Z,9.10
2022-09-12T21:58:42.959Z,8.88
2022-09-12T22:01:14.512Z,9.82
2022-09-12T22:03:45.193Z,8.48
2022-09-12T22:06:17.760Z,8.90
2022-09-12T22:08:50.735Z,9.23
2022-09-12T22:11:22.374Z,9.90
2022-09-12T22:13:53.855Z,10.85
2022-09-12T22:16:24.160Z,11.00
2022-09-12T22:18:54.293Z,9.82
2022-09-12T22:21:25.470Z,10.35
2022-09-12T22:24:12.940Z,10.48
2022-09-12T22:26:43.767Z,9.95
2022-09-12T22:29:15.685Z,9.23
2022-09-12T22:31:45.829Z,9.35
2022-09-12T22:34:16.059Z,9.75
2022-09-12T22:36:46.720Z,9.68
2022-09-12T22:39:17.140Z,9.88
2022-09-12T22:41:47.142Z,8.43
2022-09-12T22:44:19.080Z,9.30
2022-09-12T22:46:49.125Z,9.88
2022-09-12T22:49:19.363Z,9.88
2022-09-12T22:51:49.469Z,8.52
2022-09-12T22:54:19.809Z,10.40
2022-09-12T22:56:49.932Z,10.18
2022-09-12T22:59:21.741Z,9.93
2022-09-12T23:04:21.490Z,8.38
2022-09-12T23:06:51.461Z,9.23
2022-09-12T23:09:21.751Z,9.45
2022-09-12T23:11:52.409Z,9.05
2022-09-12T23:14:24.092Z,9.43
2022-09-12T23:19:23.702Z,8.80
2022-09-12T23:21:53.631Z,9.18
2022-09-12T23:24:23.809Z,7.47
2022-09-12T23:26:53.793Z,9.40
2022-09-12T23:29:25.250Z,7.22
2022-09-12T23:31:55.752Z,6.85
2022-09-12T23:34:25.640Z,7.32
2022-09-12T23:36:56.840Z,8.05
2022-09-12T23:39:27.049Z,7.63
2022-09-12T23:41:57.229Z,8.15
2022-09-12T23:44:28.671Z,10.50
2022-09-12T23:46:58.909Z,8.70
2022-09-12T23:49:28.821Z,8.40
2022-09-12T23:51:58.641Z,8.27
2022-09-12T23:54:28.769Z,8.10
2022-09-12T23:56:58.849Z,8.02
2022-09-12T23:59:31.269Z,8.07
